sensor_id;sensor_type;location;lat;lon;timestamp;pressure;altitude;pressure_sealevel;temperature;humidity
29941;BME280;16801;53.562;10.038;2023-06-14T00:01:51;101780.66;;;20.28;59.32
29941;BME280;16801;53.562;10.038;2023-06-14T00:05:12;101787.78;;;20.45;58.77
29941;BME280;16801;53.562;10.038;2023-06-14T00:08:33;101790.19;;;20.48;58.59
29941;BME280;16801;53.562;10.038;2023-06-14T00:11:54;101792.25;;;20.38;58.83
29941;BME280;16801;53.562;10.038;2023-06-14T00:15:16;101792.06;;;20.48;58.23
29941;BME280;16801;53.562;10.038;2023-06-14T00:18:37;101799.50;;;20.31;58.67
29941;BME280;16801;53.562;10.038;2023-06-14T00:21:58;101798.31;;;20.10;58.67
29941;BME280;16801;53.562;10.038;2023-06-14T00:25:19;101803.75;;;20.18;58.90
29941;BME280;16801;53.562;10.038;2023-06-14T00:28:40;101803.47;;;20.05;58.93
29941;BME280;16801;53.562;10.038;2023-06-14T00:32:02;101802.09;;;20.09;59.13
29941;BME280;16801;53.562;10.038;2023-06-14T00:35:23;101813.34;;;20.30;59.01
29941;BME280;16801;53.562;10.038;2023-06-14T00:38:45;101809.69;;;20.45;58.43
29941;BME280;16801;53.562;10.038;2023-06-14T00:42:06;101813.53;;;20.28;58.41
29941;BME280;16801;53.562;10.038;2023-06-14T00:45:27;101813.91;;;20.01;59.24
29941;BME280;16801;53.562;10.038;2023-06-14T00:48:49;101818.56;;;19.76;59.06
29941;BME280;16801;53.562;10.038;2023-06-14T00:52:10;101824.91;;;19.69;60.31
29941;BME280;16801;53.562;10.038;2023-06-14T00:55:34;101827.81;;;19.59;60.41
29941;BME280;16801;53.562;10.038;2023-06-14T00:58:56;101825.44;;;19.64;60.15
29941;BME280;16801;53.562;10.038;2023-06-14T01:02:17;101815.84;;;19.60;60.58
29941;BME280;16801;53.562;10.038;2023-06-14T01:05:40;101820.78;;;19.81;60.25
29941;BME280;16801;53.562;10.038;2023-06-14T01:09:08;101833.28;;;19.51;60.66
29941;BME280;16801;53.562;10.038;2023-06-14T01:12:36;101828.19;;;19.48;60.81
29941;BME280;16801;53.562;10.038;2023-06-14T01:15:58;101828.69;;;19.36;61.39
29941;BME280;16801;53.562;10.038;2023-06-14T01:19:20;101833.63;;;19.64;60.57
29941;BME280;16801;53.562;10.038;2023-06-14T01:22:50;101830.56;;;19.43;60.82
29941;BME280;16801;53.562;10.038;2023-06-14T01:26:12;101836.56;;;19.63;61.00
29941;BME280;16801;53.562;10.038;2023-06-14T01:29:36;101837.06;;;19.50;60.57
29941;BME280;16801;53.562;10.038;2023-06-14T01:32:58;101832.97;;;19.54;61.27
29941;BME280;16801;53.562;10.038;2023-06-14T01:36:20;101830.22;;;19.70;60.79
29941;BME280;16801;53.562;10.038;2023-06-14T01:39:44;101831.09;;;19.63;60.68
29941;BME280;16801;53.562;10.038;2023-06-14T01:43:06;101831.59;;;19.58;60.80
29941;BME280;16801;53.562;10.038;2023-06-14T01:46:27;101832.94;;;19.70;60.71
29941;BME280;16801;53.562;10.038;2023-06-14T01:49:48;101832.09;;;19.46;61.08
29941;BME280;16801;53.562;10.038;2023-06-14T01:53:10;101827.09;;;19.25;61.40
29941;BME280;16801;53.562;10.038;2023-06-14T01:56:32;101834.94;;;19.20;62.11
29941;BME280;16801;53.562;10.038;2023-06-14T01:59:53;101835.94;;;19.11;62.33
29941;BME280;16801;53.562;10.038;2023-06-14T02:03:14;101834.41;;;19.08;61.97
29941;BME280;16801;53.562;10.038;2023-06-14T02:06:35;101830.44;;;18.95;62.08
29941;BME280;16801;53.562;10.038;2023-06-14T02:09:56;101837.50;;;19.22;62.31
29941;BME280;16801;53.562;10.038;2023-06-14T02:13:19;101838.53;;;19.12;62.18
29941;BME280;16801;53.562;10.038;2023-06-14T02:16:40;101834.94;;;19.28;62.28
29941;BME280;16801;53.562;10.038;2023-06-14T02:20:09;101839.91;;;19.25;62.03
29941;BME280;16801;53.562;10.038;2023-06-14T02:23:30;101835.78;;;19.21;62.42
29941;BME280;16801;53.562;10.038;2023-06-14T02:26:52;101838.53;;;19.21;62.30
29941;BME280;16801;53.562;10.038;2023-06-14T02:30:14;101839.22;;;19.31;62.04
29941;BME280;16801;53.562;10.038;2023-06-14T02:33:36;101838.03;;;19.25;62.06
29941;BME280;16801;53.562;10.038;2023-06-14T02:36:57;101849.53;;;18.79;63.13
29941;BME280;16801;53.562;10.038;2023-06-14T02:40:20;101849.97;;;18.58;63.70
29941;BME280;16801;53.562;10.038;2023-06-14T02:43:41;101847.56;;;18.63;63.35
29941;BME280;16801;53.562;10.038;2023-06-14T02:47:04;101848.22;;;18.99;63.80
29941;BME280;16801;53.562;10.038;2023-06-14T02:50:25;101844.47;;;19.00;63.38
29941;BME280;16801;53.562;10.038;2023-06-14T02:53:47;101848.41;;;18.56;64.07
29941;BME280;16801;53.562;10.038;2023-06-14T02:57:08;101862.25;;;18.54;64.17
29941;BME280;16801;53.562;10.038;2023-06-14T03:00:31;101862.44;;;18.61;64.60
29941;BME280;16801;53.562;10.038;2023-06-14T03:03:53;101859.63;;;18.94;63.77
29941;BME280;16801;53.562;10.038;2023-06-14T03:07:15;101855.25;;;19.17;63.23
29941;BME280;16801;53.562;10.038;2023-06-14T03:10:41;101863.31;;;19.19;63.23
29941;BME280;16801;53.562;10.038;2023-06-14T03:14:03;101862.94;;;19.06;62.96
29941;BME280;16801;53.562;10.038;2023-06-14T03:17:25;101873.00;;;19.05;63.39
29941;BME280;16801;53.562;10.038;2023-06-14T03:20:51;101864.16;;;19.28;62.93
29941;BME280;16801;53.562;10.038;2023-06-14T03:24:14;101867.84;;;19.52;62.37
29941;BME280;16801;53.562;10.038;2023-06-14T03:27:36;101870.16;;;19.31;62.75
29941;BME280;16801;53.562;10.038;2023-06-14T03:30:58;101872.41;;;18.78;63.69
29941;BME280;16801;53.562;10.038;2023-06-14T03:34:20;101872.72;;;19.25;63.40
29941;BME280;16801;53.562;10.038;2023-06-14T03:37:43;101874.75;;;19.23;63.30
29941;BME280;16801;53.562;10.038;2023-06-14T03:41:04;101881.97;;;18.82;64.32
29941;BME280;16801;53.562;10.038;2023-06-14T03:44:26;101884.84;;;18.72;64.62
29941;BME280;16801;53.562;10.038;2023-06-14T03:47:48;101887.31;;;18.50;65.38
29941;BME280;16801;53.562;10.038;2023-06-14T03:51:10;101884.88;;;18.80;65.21
29941;BME280;16801;53.562;10.038;2023-06-14T03:54:33;101890.59;;;19.03;64.76
29941;BME280;16801;53.562;10.038;2023-06-14T03:57:54;101893.91;;;19.23;64.31
29941;BME280;16801;53.562;10.038;2023-06-14T04:01:15;101907.16;;;19.01;64.43
29941;BME280;16801;53.562;10.038;2023-06-14T04:04:36;101907.88;;;19.11;64.36
29941;BME280;16801;53.562;10.038;2023-06-14T04:07:58;101910.56;;;18.95;64.54
29941;BME280;16801;53.562;10.038;2023-06-14T04:11:21;101920.13;;;18.91;65.09
29941;BME280;16801;53.562;10.038;2023-06-14T04:14:42;101928.94;;;19.19;64.97
29941;BME280;16801;53.562;10.038;2023-06-14T04:18:05;101922.75;;;19.17;64.52
29941;BME280;16801;53.562;10.038;2023-06-14T04:21:26;101922.69;;;19.43;64.59
29941;BME280;16801;53.562;10.038;2023-06-14T04:24:49;101929.25;;;19.16;64.32
29941;BME280;16801;53.562;10.038;2023-06-14T04:28:16;101926.50;;;19.08;64.73
29941;BME280;16801;53.562;10.038;2023-06-14T04:31:38;101928.59;;;19.22;64.96
29941;BME280;16801;53.562;10.038;2023-06-14T04:35:02;101936.56;;;19.07;64.87
29941;BME280;16801;53.562;10.038;2023-06-14T04:38:25;101934.53;;;19.09;65.34
29941;BME280;16801;53.562;10.038;2023-06-14T04:41:47;101932.84;;;19.17;65.30
29941;BME280;16801;53.562;10.038;2023-06-14T04:45:12;101928.84;;;19.53;64.76
29941;BME280;16801;53.562;10.038;2023-06-14T04:48:35;101938.13;;;19.68;64.19
29941;BME280;16801;53.562;10.038;2023-06-14T04:51:56;101932.00;;;19.90;63.64
29941;BME280;16801;53.562;10.038;2023-06-14T04:55:21;101932.28;;;19.55;63.84
29941;BME280;16801;53.562;10.038;2023-06-14T04:58:42;101928.28;;;19.33;64.27
29941;BME280;16801;53.562;10.038;2023-06-14T05:02:05;101933.63;;;19.51;64.18
29941;BME280;16801;53.562;10.038;2023-06-14T05:05:27;101933.50;;;19.68;64.12
29941;BME280;16801;53.562;10.038;2023-06-14T05:08:48;101929.53;;;19.47;64.01
29941;BME280;16801;53.562;10.038;2023-06-14T05:12:10;101935.56;;;19.66;64.06
29941;BME280;16801;53.562;10.038;2023-06-14T05:15:31;101926.84;;;19.87;63.26
29941;BME280;16801;53.562;10.038;2023-06-14T05:18:53;101932.66;;;19.84;63.07
29941;BME280;16801;53.562;10.038;2023-06-14T05:22:14;101930.09;;;19.66;63.18
29941;BME280;16801;53.562;10.038;2023-06-14T05:25:35;101926.34;;;20.00;62.76
29941;BME280;16801;53.562;10.038;2023-06-14T05:28:57;101934.72;;;20.30;61.88
29941;BME280;16801;53.562;10.038;2023-06-14T05:32:18;101940.88;;;20.32;61.13
29941;BME280;16801;53.562;10.038;2023-06-14T05:35:41;101936.78;;;20.28;61.46
29941;BME280;16801;53.562;10.038;2023-06-14T05:39:02;101936.09;;;20.26;60.73
29941;BME280;16801;53.562;10.038;2023-06-14T05:42:24;101940.72;;;20.34;60.82
29941;BME280;16801;53.562;10.038;2023-06-14T05:45:47;101939.22;;;20.78;59.86
29941;BME280;16801;53.562;10.038;2023-06-14T05:49:08;101948.72;;;21.14;58.88
29941;BME280;16801;53.562;10.038;2023-06-14T05:52:30;101947.03;;;21.05;59.12
29941;BME280;16801;53.562;10.038;2023-06-14T05:55:51;101951.31;;;21.00;59.04
29941;BME280;16801;53.562;10.038;2023-06-14T05:59:14;101959.09;;;20.80;59.19
29941;BME280;16801;53.562;10.038;2023-06-14T06:02:35;101959.44;;;20.85;59.23
29941;BME280;16801;53.562;10.038;2023-06-14T06:05:58;101963.47;;;21.05;58.47
29941;BME280;16801;53.562;10.038;2023-06-14T06:09:20;101965.09;;;20.84;59.21
29941;BME280;16801;53.562;10.038;2023-06-14T06:12:42;101964.75;;;21.33;58.75
29941;BME280;16801;53.562;10.038;2023-06-14T06:16:03;101974.97;;;21.09;57.70
29941;BME280;16801;53.562;10.038;2023-06-14T06:19:24;101967.09;;;21.36;57.79
29941;BME280;16801;53.562;10.038;2023-06-14T06:22:45;101969.56;;;21.31;57.31
29941;BME280;16801;53.562;10.038;2023-06-14T06:26:08;101966.22;;;21.44;57.08
29941;BME280;16801;53.562;10.038;2023-06-14T06:29:29;101969.25;;;21.49;56.53
29941;BME280;16801;53.562;10.038;2023-06-14T06:32:50;101966.13;;;21.60;56.52
29941;BME280;16801;53.562;10.038;2023-06-14T06:36:11;101967.56;;;21.48;56.80
29941;BME280;16801;53.562;10.038;2023-06-14T06:39:31;101972.34;;;21.23;56.29
29941;BME280;16801;53.562;10.038;2023-06-14T06:42:54;101976.09;;;21.22;56.67
29941;BME280;16801;53.562;10.038;2023-06-14T06:46:15;101968.44;;;21.48;56.60
29941;BME280;16801;53.562;10.038;2023-06-14T06:49:38;101983.53;;;21.44;55.35
29941;BME280;16801;53.562;10.038;2023-06-14T06:52:59;101980.09;;;21.51;55.96
29941;BME280;16801;53.562;10.038;2023-06-14T06:56:21;101992.50;;;21.69;55.96
29941;BME280;16801;53.562;10.038;2023-06-14T06:59:44;101993.88;;;21.96;55.91
29941;BME280;16801;53.562;10.038;2023-06-14T07:03:05;101993.47;;;22.07;55.21
29941;BME280;16801;53.562;10.038;2023-06-14T07:06:26;102000.31;;;22.03;54.57
29941;BME280;16801;53.562;10.038;2023-06-14T07:09:47;101998.31;;;21.97;54.00
29941;BME280;16801;53.562;10.038;2023-06-14T07:13:08;101995.41;;;21.98;53.25
29941;BME280;16801;53.562;10.038;2023-06-14T07:16:31;101998.75;;;22.08;53.88
29941;BME280;16801;53.562;10.038;2023-06-14T07:19:52;102005.47;;;22.06;52.74
29941;BME280;16801;53.562;10.038;2023-06-14T07:23:13;102008.56;;;22.03;52.36
29941;BME280;16801;53.562;10.038;2023-06-14T07:26:35;101999.50;;;22.02;52.99
29941;BME280;16801;53.562;10.038;2023-06-14T07:29:56;101998.56;;;22.10;52.40
29941;BME280;16801;53.562;10.038;2023-06-14T07:33:18;102002.34;;;21.86;52.96
29941;BME280;16801;53.562;10.038;2023-06-14T07:36:42;102000.41;;;21.64;52.82
29941;BME280;16801;53.562;10.038;2023-06-14T07:40:05;101997.59;;;22.03;52.80
29941;BME280;16801;53.562;10.038;2023-06-14T07:43:26;101998.19;;;22.36;52.55
29941;BME280;16801;53.562;10.038;2023-06-14T07:46:47;101993.38;;;22.52;52.35
29941;BME280;16801;53.562;10.038;2023-06-14T07:50:12;101993.75;;;22.49;51.54
29941;BME280;16801;53.562;10.038;2023-06-14T07:53:33;101993.53;;;22.59;51.71
29941;BME280;16801;53.562;10.038;2023-06-14T07:56:54;101992.06;;;22.48;51.71
29941;BME280;16801;53.562;10.038;2023-06-14T08:00:16;102000.50;;;22.84;51.80
29941;BME280;16801;53.562;10.038;2023-06-14T08:03:37;101995.09;;;23.34;51.34
29941;BME280;16801;53.562;10.038;2023-06-14T08:07:00;101994.00;;;23.50;50.77
29941;BME280;16801;53.562;10.038;2023-06-14T08:10:22;101990.97;;;23.45;49.49
29941;BME280;16801;53.562;10.038;2023-06-14T08:13:43;101989.38;;;23.36;50.17
29941;BME280;16801;53.562;10.038;2023-06-14T08:17:04;101990.41;;;23.05;50.16
29941;BME280;16801;53.562;10.038;2023-06-14T08:20:25;101980.25;;;23.50;49.50
29941;BME280;16801;53.562;10.038;2023-06-14T08:23:47;101989.38;;;23.50;49.21
29941;BME280;16801;53.562;10.038;2023-06-14T08:27:08;101990.22;;;23.51;49.29
29941;BME280;16801;53.562;10.038;2023-06-14T08:30:29;101991.34;;;23.56;49.57
29941;BME280;16801;53.562;10.038;2023-06-14T08:33:50;101985.00;;;23.41;48.30
29941;BME280;16801;53.562;10.038;2023-06-14T08:37:11;101993.56;;;23.46;48.49
29941;BME280;16801;53.562;10.038;2023-06-14T08:40:37;101982.22;;;23.56;48.46
29941;BME280;16801;53.562;10.038;2023-06-14T08:43:57;101984.50;;;23.88;47.92
29941;BME280;16801;53.562;10.038;2023-06-14T08:47:19;101990.91;;;23.95;48.66
29941;BME280;16801;53.562;10.038;2023-06-14T08:50:41;101982.59;;;23.67;48.83
29941;BME280;16801;53.562;10.038;2023-06-14T08:54:02;101978.94;;;24.03;48.04
29941;BME280;16801;53.562;10.038;2023-06-14T08:57:26;101988.31;;;24.08;47.31
29941;BME280;16801;53.562;10.038;2023-06-14T09:00:50;101990.38;;;23.49;48.00
29941;BME280;16801;53.562;10.038;2023-06-14T09:04:12;101985.94;;;23.84;47.73
29941;BME280;16801;53.562;10.038;2023-06-14T09:07:33;101988.31;;;24.08;47.69
29941;BME280;16801;53.562;10.038;2023-06-14T09:10:54;101983.00;;;24.28;47.85
29941;BME280;16801;53.562;10.038;2023-06-14T09:14:17;101988.13;;;24.58;46.59
29941;BME280;16801;53.562;10.038;2023-06-14T09:17:38;101985.88;;;24.69;47.18
29941;BME280;16801;53.562;10.038;2023-06-14T09:20:59;101981.81;;;24.92;46.94
29941;BME280;16801;53.562;10.038;2023-06-14T09:24:20;101981.41;;;24.95;46.17
29941;BME280;16801;53.562;10.038;2023-06-14T09:27:41;101976.00;;;25.15;46.04
29941;BME280;16801;53.562;10.038;2023-06-14T09:31:04;101979.66;;;25.28;45.43
29941;BME280;16801;53.562;10.038;2023-06-14T09:34:25;101988.44;;;24.98;46.36
29941;BME280;16801;53.562;10.038;2023-06-14T09:37:47;101981.38;;;25.29;46.15
29941;BME280;16801;53.562;10.038;2023-06-14T09:41:08;101974.63;;;24.70;46.21
29941;BME280;16801;53.562;10.038;2023-06-14T09:44:28;101986.69;;;24.63;46.75
29941;BME280;16801;53.562;10.038;2023-06-14T09:47:51;101987.69;;;24.83;45.74
29941;BME280;16801;53.562;10.038;2023-06-14T09:51:13;101969.25;;;24.83;45.51
29941;BME280;16801;53.562;10.038;2023-06-14T09:54:40;101976.19;;;25.07;45.62
29941;BME280;16801;53.562;10.038;2023-06-14T09:58:04;101976.88;;;25.15;45.68
29941;BME280;16801;53.562;10.038;2023-06-14T10:01:26;101979.94;;;24.93;46.09
29941;BME280;16801;53.562;10.038;2023-06-14T10:04:56;101974.53;;;25.66;45.95
29941;BME280;16801;53.562;10.038;2023-06-14T10:08:23;101974.81;;;25.91;45.02
29941;BME280;16801;53.562;10.038;2023-06-14T10:11:46;101984.66;;;26.13;43.96
29941;BME280;16801;53.562;10.038;2023-06-14T10:15:09;101971.56;;;25.61;44.22
29941;BME280;16801;53.562;10.038;2023-06-14T10:18:35;101977.97;;;25.75;44.31
29941;BME280;16801;53.562;10.038;2023-06-14T10:22:02;101979.22;;;25.66;44.42
29941;BME280;16801;53.562;10.038;2023-06-14T10:25:29;101975.16;;;25.62;45.41
29941;BME280;16801;53.562;10.038;2023-06-14T10:29:00;101968.00;;;25.93;45.16
29941;BME280;16801;53.562;10.038;2023-06-14T10:32:22;101974.56;;;25.73;44.99
29941;BME280;16801;53.562;10.038;2023-06-14T10:35:44;101970.19;;;26.57;43.82
29941;BME280;16801;53.562;10.038;2023-06-14T10:39:07;101970.63;;;26.73;43.56
29941;BME280;16801;53.562;10.038;2023-06-14T10:42:31;101956.28;;;27.03;43.26
29941;BME280;16801;53.562;10.038;2023-06-14T10:46:15;101951.22;;;26.67;43.33
29941;BME280;16801;53.562;10.038;2023-06-14T10:49:39;101958.50;;;26.61;43.06
29941;BME280;16801;53.562;10.038;2023-06-14T10:53:21;101955.53;;;27.40;41.96
29941;BME280;16801;53.562;10.038;2023-06-14T10:56:47;101956.59;;;26.36;41.82
29941;BME280;16801;53.562;10.038;2023-06-14T11:00:10;101950.59;;;26.58;43.23
29941;BME280;16801;53.562;10.038;2023-06-14T11:03:50;101947.22;;;26.76;42.36
29941;BME280;16801;53.562;10.038;2023-06-14T11:07:30;101942.28;;;25.99;43.61
29941;BME280;16801;53.562;10.038;2023-06-14T11:10:59;101945.50;;;26.03;43.62
29941;BME280;16801;53.562;10.038;2023-06-14T11:14:22;101933.66;;;27.12;43.20
29941;BME280;16801;53.562;10.038;2023-06-14T11:17:50;101928.56;;;27.60;42.01
29941;BME280;16801;53.562;10.038;2023-06-14T11:21:15;101934.44;;;27.32;41.27
29941;BME280;16801;53.562;10.038;2023-06-14T11:24:36;101926.59;;;27.23;42.29
29941;BME280;16801;53.562;10.038;2023-06-14T11:27:58;101921.66;;;26.80;41.68
29941;BME280;16801;53.562;10.038;2023-06-14T11:31:21;101927.03;;;26.36;42.01
29941;BME280;16801;53.562;10.038;2023-06-14T11:34:45;101914.28;;;26.22;42.28
29941;BME280;16801;53.562;10.038;2023-06-14T11:38:07;101921.66;;;25.82;43.00
29941;BME280;16801;53.562;10.038;2023-06-14T11:41:32;101916.81;;;26.10;43.11
29941;BME280;16801;53.562;10.038;2023-06-14T11:44:54;101909.94;;;26.65;42.70
29941;BME280;16801;53.562;10.038;2023-06-14T11:48:22;101920.00;;;26.21;43.77
29941;BME280;16801;53.562;10.038;2023-06-14T11:51:44;101911.88;;;26.06;43.51
29941;BME280;16801;53.562;10.038;2023-06-14T11:55:05;101902.94;;;26.76;42.90
29941;BME280;16801;53.562;10.038;2023-06-14T11:58:27;101896.56;;;27.26;41.82
29941;BME280;16801;53.562;10.038;2023-06-14T12:01:50;101893.72;;;27.39;42.12
29941;BME280;16801;53.562;10.038;2023-06-14T12:05:12;101907.84;;;27.25;41.97
29941;BME280;16801;53.562;10.038;2023-06-14T12:08:34;101896.50;;;27.33;41.33
29941;BME280;16801;53.562;10.038;2023-06-14T12:12:00;101897.75;;;27.75;40.57
29941;BME280;16801;53.562;10.038;2023-06-14T12:15:21;101889.81;;;28.59;39.90
29941;BME280;16801;53.562;10.038;2023-06-14T12:18:43;101884.66;;;27.63;41.02
29941;BME280;16801;53.562;10.038;2023-06-14T12:22:09;101889.25;;;26.87;41.52
29941;BME280;16801;53.562;10.038;2023-06-14T12:25:31;101891.47;;;27.17;41.34
29941;BME280;16801;53.562;10.038;2023-06-14T12:28:53;101876.72;;;27.36;40.86
29941;BME280;16801;53.562;10.038;2023-06-14T12:32:14;101889.84;;;27.53;40.52
29941;BME280;16801;53.562;10.038;2023-06-14T12:35:38;101882.13;;;27.11;41.06
29941;BME280;16801;53.562;10.038;2023-06-14T12:39:02;101891.63;;;26.84;41.27
29941;BME280;16801;53.562;10.038;2023-06-14T12:42:24;101890.34;;;26.80;41.88
29941;BME280;16801;53.562;10.038;2023-06-14T12:45:45;101887.88;;;27.54;41.17
29941;BME280;16801;53.562;10.038;2023-06-14T12:49:08;101875.34;;;27.83;40.21
29941;BME280;16801;53.562;10.038;2023-06-14T12:52:28;101872.22;;;28.46;39.20
29941;BME280;16801;53.562;10.038;2023-06-14T12:55:51;101883.44;;;28.94;39.21
29941;BME280;16801;53.562;10.038;2023-06-14T12:59:11;101861.00;;;28.60;38.73
29941;BME280;16801;53.562;10.038;2023-06-14T13:02:33;101867.78;;;29.18;38.39
29941;BME280;16801;53.562;10.038;2023-06-14T13:05:54;101855.75;;;29.36;38.53
29941;BME280;16801;53.562;10.038;2023-06-14T13:09:15;101868.91;;;29.29;38.33
29941;BME280;16801;53.562;10.038;2023-06-14T13:12:37;101879.88;;;29.23;37.97
29941;BME280;16801;53.562;10.038;2023-06-14T13:15:58;101873.47;;;28.69;38.08
29941;BME280;16801;53.562;10.038;2023-06-14T13:19:19;101872.56;;;28.75;38.14
29941;BME280;16801;53.562;10.038;2023-06-14T13:22:40;101870.00;;;30.22;36.53
29941;BME280;16801;53.562;10.038;2023-06-14T13:26:02;101875.22;;;32.50;33.66
29941;BME280;16801;53.562;10.038;2023-06-14T13:29:24;101866.97;;;33.73;31.71
29941;BME280;16801;53.562;10.038;2023-06-14T13:32:47;101860.66;;;34.51;30.03
29941;BME280;16801;53.562;10.038;2023-06-14T13:36:08;101855.47;;;35.42;28.92
29941;BME280;16801;53.562;10.038;2023-06-14T13:39:29;101859.19;;;35.83;28.74
29941;BME280;16801;53.562;10.038;2023-06-14T13:42:50;101868.19;;;35.95;28.70
29941;BME280;16801;53.562;10.038;2023-06-14T13:46:13;101853.78;;;34.32;30.03
29941;BME280;16801;53.562;10.038;2023-06-14T13:49:34;101850.81;;;31.34;33.46
29941;BME280;16801;53.562;10.038;2023-06-14T13:52:55;101864.78;;;29.49;35.72
29941;BME280;16801;53.562;10.038;2023-06-14T13:56:16;101856.91;;;31.60;33.51
29941;BME280;16801;53.562;10.038;2023-06-14T13:59:38;101853.25;;;32.59;32.43
29941;BME280;16801;53.562;10.038;2023-06-14T14:03:01;101851.69;;;32.46;32.43
29941;BME280;16801;53.562;10.038;2023-06-14T14:06:23;101835.28;;;32.50;31.58
29941;BME280;16801;53.562;10.038;2023-06-14T14:09:43;101830.97;;;32.25;32.25
29941;BME280;16801;53.562;10.038;2023-06-14T14:13:04;101834.78;;;32.03;33.15
29941;BME280;16801;53.562;10.038;2023-06-14T14:16:25;101842.50;;;30.71;34.71
29941;BME280;16801;53.562;10.038;2023-06-14T14:19:48;101836.63;;;29.57;35.71
29941;BME280;16801;53.562;10.038;2023-06-14T14:23:09;101835.81;;;28.36;37.04
29941;BME280;16801;53.562;10.038;2023-06-14T14:26:30;101844.13;;;27.62;38.21
29941;BME280;16801;53.562;10.038;2023-06-14T14:29:51;101846.50;;;28.33;37.76
29941;BME280;16801;53.562;10.038;2023-06-14T14:33:12;101856.78;;;29.53;36.64
29941;BME280;16801;53.562;10.038;2023-06-14T14:36:36;101853.22;;;28.86;36.66
29941;BME280;16801;53.562;10.038;2023-06-14T14:40:01;101850.88;;;29.61;35.84
29941;BME280;16801;53.562;10.038;2023-06-14T14:43:23;101850.00;;;29.78;35.31
29941;BME280;16801;53.562;10.038;2023-06-14T14:46:44;101844.81;;;29.82;34.82
29941;BME280;16801;53.562;10.038;2023-06-14T14:50:05;101856.91;;;30.11;34.86
29941;BME280;16801;53.562;10.038;2023-06-14T14:53:29;101850.53;;;30.22;34.85
29941;BME280;16801;53.562;10.038;2023-06-14T14:56:50;101848.97;;;30.49;34.30
29941;BME280;16801;53.562;10.038;2023-06-14T15:00:12;101846.03;;;30.67;34.68
29941;BME280;16801;53.562;10.038;2023-06-14T15:03:33;101855.63;;;30.36;34.70
29941;BME280;16801;53.562;10.038;2023-06-14T15:06:54;101855.72;;;29.95;34.48
29941;BME280;16801;53.562;10.038;2023-06-14T15:10:16;101844.22;;;29.91;34.63
29941;BME280;16801;53.562;10.038;2023-06-14T15:13:37;101838.56;;;30.56;34.59
29941;BME280;16801;53.562;10.038;2023-06-14T15:16:58;101839.25;;;30.63;34.24
29941;BME280;16801;53.562;10.038;2023-06-14T15:20:21;101847.91;;;30.50;33.49
29941;BME280;16801;53.562;10.038;2023-06-14T15:23:42;101844.84;;;29.93;34.25
29941;BME280;16801;53.562;10.038;2023-06-14T15:27:05;101848.34;;;30.24;33.81
29941;BME280;16801;53.562;10.038;2023-06-14T15:30:26;101852.25;;;30.34;34.45
29941;BME280;16801;53.562;10.038;2023-06-14T15:33:47;101838.53;;;30.67;34.34
29941;BME280;16801;53.562;10.038;2023-06-14T15:37:08;101841.97;;;30.35;34.25
29941;BME280;16801;53.562;10.038;2023-06-14T15:40:29;101854.53;;;30.14;33.79
29941;BME280;16801;53.562;10.038;2023-06-14T15:43:51;101846.53;;;30.18;33.94
29941;BME280;16801;53.562;10.038;2023-06-14T15:47:12;101854.84;;;29.83;34.29
29941;BME280;16801;53.562;10.038;2023-06-14T15:50:34;101847.09;;;29.73;34.40
29941;BME280;16801;53.562;10.038;2023-06-14T15:53:55;101849.91;;;29.55;34.80
29941;BME280;16801;53.562;10.038;2023-06-14T15:57:16;101843.34;;;29.79;34.78
29941;BME280;16801;53.562;10.038;2023-06-14T16:00:38;101845.56;;;29.59;34.91
29941;BME280;16801;53.562;10.038;2023-06-14T16:03:59;101840.00;;;29.59;34.85
29941;BME280;16801;53.562;10.038;2023-06-14T16:07:20;101843.41;;;28.84;35.65
29941;BME280;16801;53.562;10.038;2023-06-14T16:10:41;101844.81;;;28.32;36.21
29941;BME280;16801;53.562;10.038;2023-06-14T16:14:02;101841.09;;;28.63;35.97
29941;BME280;16801;53.562;10.038;2023-06-14T16:17:25;101843.72;;;28.76;35.78
29941;BME280;16801;53.562;10.038;2023-06-14T16:20:47;101842.50;;;28.72;35.53
29941;BME280;16801;53.562;10.038;2023-06-14T16:24:08;101840.19;;;28.87;35.31
29941;BME280;16801;53.562;10.038;2023-06-14T16:27:29;101843.94;;;28.92;35.63
29941;BME280;16801;53.562;10.038;2023-06-14T16:30:50;101849.66;;;29.15;35.42
29941;BME280;16801;53.562;10.038;2023-06-14T16:34:12;101840.88;;;28.82;35.09
29941;BME280;16801;53.562;10.038;2023-06-14T16:37:35;101838.13;;;28.39;35.25
29941;BME280;16801;53.562;10.038;2023-06-14T16:40:56;101844.88;;;28.07;35.78
29941;BME280;16801;53.562;10.038;2023-06-14T16:44:17;101852.63;;;27.92;35.67
29941;BME280;16801;53.562;10.038;2023-06-14T16:47:38;101848.16;;;28.22;35.69
29941;BME280;16801;53.562;10.038;2023-06-14T16:51:01;101853.25;;;28.01;35.70
29941;BME280;16801;53.562;10.038;2023-06-14T16:54:22;101851.41;;;27.88;35.91
29941;BME280;16801;53.562;10.038;2023-06-14T16:57:43;101851.59;;;27.93;35.55
29941;BME280;16801;53.562;10.038;2023-06-14T17:01:03;101850.47;;;28.01;35.00
29941;BME280;16801;53.562;10.038;2023-06-14T17:04:25;101853.16;;;27.83;35.43
29941;BME280;16801;53.562;10.038;2023-06-14T17:07:47;101860.16;;;27.85;35.89
29941;BME280;16801;53.562;10.038;2023-06-14T17:11:08;101856.41;;;27.73;35.74
29941;BME280;16801;53.562;10.038;2023-06-14T17:14:30;101853.84;;;27.78;36.14
29941;BME280;16801;53.562;10.038;2023-06-14T17:17:51;101849.47;;;27.64;35.68
29941;BME280;16801;53.562;10.038;2023-06-14T17:21:12;101848.34;;;27.72;35.55
29941;BME280;16801;53.562;10.038;2023-06-14T17:24:35;101866.50;;;27.36;35.71